sensor_id;sensor_type;location;lat;lon;timestamp;pressure;altitude;pressure_sealevel;temperature;humidity
77153;BME280;66124;51.146;17.072;2023-09-08T00:00:11;100973.14;;;17.06;65.93
77153;BME280;66124;51.146;17.072;2023-09-08T00:03:00;100972.20;;;17.04;66.01
77153;BME280;66124;51.146;17.072;2023-09-08T00:05:30;100969.04;;;17.01;66.28
77153;BME280;66124;51.146;17.072;2023-09-08T00:07:57;100966.61;;;16.98;66.37
77153;BME280;66124;51.146;17.072;2023-09-08T00:10:25;100967.38;;;16.95;66.39
77153;BME280;66124;51.146;17.072;2023-09-08T00:18:01;100961.48;;;16.91;66.63
77153;BME280;66124;51.146;17.072;2023-09-08T00:20:31;100965.15;;;16.86;66.75
77153;BME280;66124;51.146;17.072;2023-09-08T00:23:01;100966.24;;;16.83;67.08
77153;BME280;66124;51.146;17.072;2023-09-08T00:25:30;100943.18;;;16.67;67.07
77153;BME280;66124;51.146;17.072;2023-09-08T00:28:00;100961.36;;;16.77;67.18
77153;BME280;66124;51.146;17.072;2023-09-08T00:30:30;100959.79;;;16.74;67.25
77153;BME280;66124;51.146;17.072;2023-09-08T00:32:59;100960.52;;;16.72;67.33
77153;BME280;66124;51.146;17.072;2023-09-08T00:35:29;100957.73;;;16.69;67.33
77153;BME280;66124;51.146;17.072;2023-09-08T00:37:58;100959.38;;;16.66;67.37
77153;BME280;66124;51.146;17.072;2023-09-08T00:40:28;100957.27;;;16.63;67.53
77153;BME280;66124;51.146;17.072;2023-09-08T00:42:57;100957.63;;;16.60;67.78
77153;BME280;66124;51.146;17.072;2023-09-08T00:45:27;100957.25;;;16.56;67.83
77153;BME280;66124;51.146;17.072;2023-09-08T00:47:58;100952.57;;;16.53;67.74
77153;BME280;66124;51.146;17.072;2023-09-08T00:50:28;100949.32;;;16.51;67.84
77153;BME280;66124;51.146;17.072;2023-09-08T00:52:58;100949.78;;;16.48;68.07
77153;BME280;66124;51.146;17.072;2023-09-08T00:55:27;100950.19;;;16.46;68.01
77153;BME280;66124;51.146;17.072;2023-09-08T00:57:57;100950.70;;;16.44;67.99
77153;BME280;66124;51.146;17.072;2023-09-08T01:00:26;100948.94;;;16.41;68.20
77153;BME280;66124;51.146;17.072;2023-09-08T01:02:55;100949.49;;;16.40;68.20
77153;BME280;66124;51.146;17.072;2023-09-08T01:05:25;100952.81;;;16.37;68.46
77153;BME280;66124;51.146;17.072;2023-09-08T01:07:56;100954.71;;;16.35;68.71
77153;BME280;66124;51.146;17.072;2023-09-08T01:10:26;100955.29;;;16.32;68.85
77153;BME280;66124;51.146;17.072;2023-09-08T01:12:55;100951.27;;;16.29;68.99
77153;BME280;66124;51.146;17.072;2023-09-08T01:15:25;100949.16;;;16.26;68.80
77153;BME280;66124;51.146;17.072;2023-09-08T01:17:55;100948.32;;;16.24;68.99
77153;BME280;66124;51.146;17.072;2023-09-08T01:20:27;100945.25;;;16.22;69.18
77153;BME280;66124;51.146;17.072;2023-09-08T01:23:19;100946.80;;;16.20;69.03
77153;BME280;66124;51.146;17.072;2023-09-08T01:25:54;100941.95;;;16.16;69.22
77153;BME280;66124;51.146;17.072;2023-09-08T01:28:22;100941.69;;;16.13;69.05
77153;BME280;66124;51.146;17.072;2023-09-08T01:30:51;100938.72;;;16.09;68.94
77153;BME280;66124;51.146;17.072;2023-09-08T01:39:07;100936.95;;;16.01;68.80
77153;BME280;66124;51.146;17.072;2023-09-08T01:41:35;100936.78;;;15.95;68.96
77153;BME280;66124;51.146;17.072;2023-09-08T01:44:02;100939.57;;;15.92;69.05
77153;BME280;66124;51.146;17.072;2023-09-08T01:46:30;100941.88;;;15.88;69.12
77153;BME280;66124;51.146;17.072;2023-09-08T01:48:57;100937.94;;;15.84;68.97
77153;BME280;66124;51.146;17.072;2023-09-08T01:51:25;100939.70;;;15.80;69.14
77153;BME280;66124;51.146;17.072;2023-09-08T01:54:52;100938.31;;;15.78;68.96
77153;BME280;66124;51.146;17.072;2023-09-08T01:57:21;100937.74;;;15.73;69.25
77153;BME280;66124;51.146;17.072;2023-09-08T01:59:51;100937.89;;;15.69;69.28
77153;BME280;66124;51.146;17.072;2023-09-08T02:02:20;100939.23;;;15.66;69.20
77153;BME280;66124;51.146;17.072;2023-09-08T02:04:50;100938.90;;;15.62;69.47
77153;BME280;66124;51.146;17.072;2023-09-08T02:07:20;100938.58;;;15.57;69.76
77153;BME280;66124;51.146;17.072;2023-09-08T02:09:50;100939.09;;;15.53;69.93
77153;BME280;66124;51.146;17.072;2023-09-08T02:12:19;100936.00;;;15.50;70.10
77153;BME280;66124;51.146;17.072;2023-09-08T02:14:50;100934.62;;;15.47;69.96
77153;BME280;66124;51.146;17.072;2023-09-08T02:17:19;100934.54;;;15.43;69.87
77153;BME280;66124;51.146;17.072;2023-09-08T02:19:49;100934.53;;;15.39;69.90
77153;BME280;66124;51.146;17.072;2023-09-08T02:22:19;100935.12;;;15.34;69.94
77153;BME280;66124;51.146;17.072;2023-09-08T02:24:48;100935.29;;;15.31;69.92
77153;BME280;66124;51.146;17.072;2023-09-08T02:27:18;100938.20;;;15.28;70.09
77153;BME280;66124;51.146;17.072;2023-09-08T02:29:48;100938.76;;;15.25;70.20
77153;BME280;66124;51.146;17.072;2023-09-08T02:32:17;100936.11;;;15.22;69.98
77153;BME280;66124;51.146;17.072;2023-09-08T02:34:46;100932.51;;;15.20;70.14
77153;BME280;66124;51.146;17.072;2023-09-08T02:37:16;100932.95;;;15.16;70.18
77153;BME280;66124;51.146;17.072;2023-09-08T02:39:45;100935.52;;;15.13;70.07
77153;BME280;66124;51.146;17.072;2023-09-08T02:42:14;100933.63;;;15.08;70.34
77153;BME280;66124;51.146;17.072;2023-09-08T02:44:44;100931.19;;;15.05;70.34
77153;BME280;66124;51.146;17.072;2023-09-08T02:47:13;100927.65;;;15.02;70.43
77153;BME280;66124;51.146;17.072;2023-09-08T02:49:43;100927.34;;;14.99;70.44
77153;BME280;66124;51.146;17.072;2023-09-08T02:52:12;100922.27;;;14.96;70.39
77153;BME280;66124;51.146;17.072;2023-09-08T02:54:42;100923.84;;;14.92;70.35
77153;BME280;66124;51.146;17.072;2023-09-08T02:57:11;100926.59;;;14.90;70.37
77153;BME280;66124;51.146;17.072;2023-09-08T02:59:40;100929.80;;;14.87;70.36
77153;BME280;66124;51.146;17.072;2023-09-08T03:02:10;100926.52;;;14.83;70.53
77153;BME280;66124;51.146;17.072;2023-09-08T03:04:39;100924.96;;;14.82;70.50
77153;BME280;66124;51.146;17.072;2023-09-08T03:07:07;100926.15;;;14.78;70.62
77153;BME280;66124;51.146;17.072;2023-09-08T03:19:41;100918.16;;;14.75;70.41
77153;BME280;66124;51.146;17.072;2023-09-08T03:22:13;100919.09;;;14.70;70.42
77153;BME280;66124;51.146;17.072;2023-09-08T03:24:43;100917.18;;;14.67;70.41
77153;BME280;66124;51.146;17.072;2023-09-08T03:27:12;100916.11;;;14.63;70.57
77153;BME280;66124;51.146;17.072;2023-09-08T03:29:42;100916.62;;;14.60;70.69
77153;BME280;66124;51.146;17.072;2023-09-08T03:32:11;100916.86;;;14.57;70.78
77153;BME280;66124;51.146;17.072;2023-09-08T03:34:40;100916.55;;;14.53;70.87
77153;BME280;66124;51.146;17.072;2023-09-08T03:37:10;100913.13;;;14.50;70.92
77153;BME280;66124;51.146;17.072;2023-09-08T03:41:55;100913.60;;;14.46;70.94
77153;BME280;66124;51.146;17.072;2023-09-08T03:45:46;100907.94;;;14.43;71.45
77153;BME280;66124;51.146;17.072;2023-09-08T03:48:15;100904.34;;;14.38;71.90
77153;BME280;66124;51.146;17.072;2023-09-08T03:50:45;100912.30;;;14.36;72.26
77153;BME280;66124;51.146;17.072;2023-09-08T03:53:14;100912.76;;;14.36;72.38
77153;BME280;66124;51.146;17.072;2023-09-08T03:55:44;100914.10;;;14.35;72.67
77153;BME280;66124;51.146;17.072;2023-09-08T03:58:13;100916.60;;;14.33;72.85
77153;BME280;66124;51.146;17.072;2023-09-08T04:00:43;100916.31;;;14.33;72.96
77153;BME280;66124;51.146;17.072;2023-09-08T04:03:12;100919.01;;;14.32;73.16
77153;BME280;66124;51.146;17.072;2023-09-08T04:05:42;100921.36;;;14.32;73.14
77153;BME280;66124;51.146;17.072;2023-09-08T04:08:11;100920.29;;;14.30;73.11
77153;BME280;66124;51.146;17.072;2023-09-08T04:10:41;100920.70;;;14.28;73.30
77153;BME280;66124;51.146;17.072;2023-09-08T04:13:10;100923.39;;;14.28;73.48
77153;BME280;66124;51.146;17.072;2023-09-08T04:15:40;100918.70;;;14.27;73.65
77153;BME280;66124;51.146;17.072;2023-09-08T04:18:09;100918.90;;;14.29;73.97
77153;BME280;66124;51.146;17.072;2023-09-08T04:20:39;100917.71;;;14.28;73.83
77153;BME280;66124;51.146;17.072;2023-09-08T04:23:08;100919.36;;;14.28;73.96
77153;BME280;66124;51.146;17.072;2023-09-08T04:25:38;100918.59;;;14.28;74.00
77153;BME280;66124;51.146;17.072;2023-09-08T04:28:07;100895.59;;;14.17;74.21
77153;BME280;66124;51.146;17.072;2023-09-08T04:30:37;100913.91;;;14.28;74.13
77153;BME280;66124;51.146;17.072;2023-09-08T04:33:06;100917.54;;;14.30;74.23
77153;BME280;66124;51.146;17.072;2023-09-08T04:35:36;100915.31;;;14.31;74.27
77153;BME280;66124;51.146;17.072;2023-09-08T04:38:05;100914.46;;;14.32;74.24
77153;BME280;66124;51.146;17.072;2023-09-08T04:40:35;100914.19;;;14.33;74.26
77153;BME280;66124;51.146;17.072;2023-09-08T04:43:04;100905.86;;;14.30;74.37
77153;BME280;66124;51.146;17.072;2023-09-08T04:45:34;100916.36;;;14.34;74.55
77153;BME280;66124;51.146;17.072;2023-09-08T04:48:04;100917.19;;;14.37;74.39
77153;BME280;66124;51.146;17.072;2023-09-08T04:50:33;100912.64;;;14.40;74.44
77153;BME280;66124;51.146;17.072;2023-09-08T04:53:03;100912.84;;;14.43;74.57
77153;BME280;66124;51.146;17.072;2023-09-08T04:55:32;100912.27;;;14.47;74.55
77153;BME280;66124;51.146;17.072;2023-09-08T04:58:00;100909.56;;;14.50;74.50
77153;BME280;66124;51.146;17.072;2023-09-08T05:06:13;100912.05;;;14.70;74.87
77153;BME280;66124;51.146;17.072;2023-09-08T05:08:42;100902.56;;;14.77;75.09
77153;BME280;66124;51.146;17.072;2023-09-08T05:11:12;100905.70;;;14.88;75.25
77153;BME280;66124;51.146;17.072;2023-09-08T05:13:41;100907.01;;;15.02;75.24
77153;BME280;66124;51.146;17.072;2023-09-08T05:16:11;100911.83;;;15.15;75.02
77153;BME280;66124;51.146;17.072;2023-09-08T05:18:42;100911.60;;;15.28;74.81
77153;BME280;66124;51.146;17.072;2023-09-08T05:21:11;100907.77;;;15.40;74.63
77153;BME280;66124;51.146;17.072;2023-09-08T05:23:40;100906.80;;;15.51;74.52
77153;BME280;66124;51.146;17.072;2023-09-08T05:26:10;100907.85;;;15.60;74.40
77153;BME280;66124;51.146;17.072;2023-09-08T05:28:39;100906.98;;;15.70;74.24
77153;BME280;66124;51.146;17.072;2023-09-08T05:31:09;100909.15;;;15.79;74.12
77153;BME280;66124;51.146;17.072;2023-09-08T05:33:41;100911.36;;;15.88;74.04
77153;BME280;66124;51.146;17.072;2023-09-08T05:36:10;100912.11;;;15.98;73.94
77153;BME280;66124;51.146;17.072;2023-09-08T05:38:40;100912.97;;;16.08;73.62
77153;BME280;66124;51.146;17.072;2023-09-08T05:41:09;100912.48;;;16.17;73.34
77153;BME280;66124;51.146;17.072;2023-09-08T05:43:39;100912.46;;;16.27;73.35
77153;BME280;66124;51.146;17.072;2023-09-08T05:46:08;100919.14;;;16.37;73.04
77153;BME280;66124;51.146;17.072;2023-09-08T05:48:37;100919.10;;;16.47;72.86
77153;BME280;66124;51.146;17.072;2023-09-08T05:51:07;100921.77;;;16.57;72.74
77153;BME280;66124;51.146;17.072;2023-09-08T05:53:36;100922.33;;;16.68;72.72
77153;BME280;66124;51.146;17.072;2023-09-08T05:56:06;100921.45;;;16.78;72.63
77153;BME280;66124;51.146;17.072;2023-09-08T05:58:35;100924.00;;;16.89;72.33
77153;BME280;66124;51.146;17.072;2023-09-08T06:01:05;100918.81;;;17.00;72.20
77153;BME280;66124;51.146;17.072;2023-09-08T06:03:35;100920.90;;;17.09;71.95
77153;BME280;66124;51.146;17.072;2023-09-08T06:06:04;100916.36;;;17.17;71.68
77153;BME280;66124;51.146;17.072;2023-09-08T06:08:34;100918.11;;;17.25;71.51
77153;BME280;66124;51.146;17.072;2023-09-08T06:11:04;100917.21;;;17.32;71.37
77153;BME280;66124;51.146;17.072;2023-09-08T06:13:33;100913.64;;;17.40;71.05
77153;BME280;66124;51.146;17.072;2023-09-08T06:16:01;100908.66;;;17.46;71.19
77153;BME280;66124;51.146;17.072;2023-09-08T06:18:29;100904.63;;;17.53;70.94
77153;BME280;66124;51.146;17.072;2023-09-08T06:26:06;100907.83;;;17.74;70.79
77153;BME280;66124;51.146;17.072;2023-09-08T06:28:36;100910.98;;;17.78;70.54
77153;BME280;66124;51.146;17.072;2023-09-08T06:31:05;100912.98;;;17.85;70.65
77153;BME280;66124;51.146;17.072;2023-09-08T06:33:35;100916.33;;;17.97;70.56
77153;BME280;66124;51.146;17.072;2023-09-08T06:36:04;100915.55;;;18.09;70.24
77153;BME280;66124;51.146;17.072;2023-09-08T06:38:35;100914.33;;;18.19;70.02
77153;BME280;66124;51.146;17.072;2023-09-08T06:41:09;100918.23;;;18.27;69.95
77153;BME280;66124;51.146;17.072;2023-09-08T06:43:39;100919.77;;;18.35;69.75
77153;BME280;66124;51.146;17.072;2023-09-08T06:46:09;100919.69;;;18.44;69.56
77153;BME280;66124;51.146;17.072;2023-09-08T06:48:38;100924.29;;;18.54;69.36
77153;BME280;66124;51.146;17.072;2023-09-08T06:51:07;100926.21;;;18.62;69.15
77153;BME280;66124;51.146;17.072;2023-09-08T06:53:37;100927.40;;;18.70;69.05
77153;BME280;66124;51.146;17.072;2023-09-08T06:56:06;100927.77;;;18.77;68.88
77153;BME280;66124;51.146;17.072;2023-09-08T06:58:36;100934.85;;;18.90;68.71
77153;BME280;66124;51.146;17.072;2023-09-08T07:01:05;100931.89;;;19.00;68.56
77153;BME280;66124;51.146;17.072;2023-09-08T07:03:34;100929.70;;;19.12;68.37
77153;BME280;66124;51.146;17.072;2023-09-08T07:06:04;100923.80;;;19.20;68.18
77153;BME280;66124;51.146;17.072;2023-09-08T07:08:33;100917.48;;;19.27;68.01
77153;BME280;66124;51.146;17.072;2023-09-08T07:11:03;100925.06;;;19.39;67.92
77153;BME280;66124;51.146;17.072;2023-09-08T07:13:32;100929.07;;;19.49;67.82
77153;BME280;66124;51.146;17.072;2023-09-08T07:16:02;100927.42;;;19.63;67.67
77153;BME280;66124;51.146;17.072;2023-09-08T07:18:32;100924.54;;;19.75;67.42
77153;BME280;66124;51.146;17.072;2023-09-08T07:21:01;100927.24;;;19.87;67.25
77153;BME280;66124;51.146;17.072;2023-09-08T07:23:30;100927.23;;;19.99;67.06
77153;BME280;66124;51.146;17.072;2023-09-08T07:26:00;100927.79;;;20.11;66.91
77153;BME280;66124;51.146;17.072;2023-09-08T07:28:30;100928.50;;;20.22;66.59
77153;BME280;66124;51.146;17.072;2023-09-08T07:31:03;100925.71;;;20.33;66.55
77153;BME280;66124;51.146;17.072;2023-09-08T07:33:33;100929.17;;;20.44;66.29
77153;BME280;66124;51.146;17.072;2023-09-08T07:36:04;100923.96;;;20.48;65.97
77153;BME280;66124;51.146;17.072;2023-09-08T07:38:32;100926.23;;;20.51;65.81
77153;BME280;66124;51.146;17.072;2023-09-08T07:48:54;100930.64;;;20.78;65.18
77153;BME280;66124;51.146;17.072;2023-09-08T07:51:22;100931.59;;;20.80;65.00
77153;BME280;66124;51.146;17.072;2023-09-08T07:53:49;100931.23;;;20.83;64.93
77153;BME280;66124;51.146;17.072;2023-09-08T07:56:16;100936.95;;;20.88;64.79
77153;BME280;66124;51.146;17.072;2023-09-08T07:58:44;100934.86;;;20.94;64.72
77153;BME280;66124;51.146;17.072;2023-09-08T08:01:13;100936.23;;;21.00;64.57
77153;BME280;66124;51.146;17.072;2023-09-08T08:03:40;100933.39;;;21.08;64.46
77153;BME280;66124;51.146;17.072;2023-09-08T08:06:08;100930.36;;;21.11;64.25
77153;BME280;66124;51.146;17.072;2023-09-08T08:08:34;100931.30;;;21.14;64.11
77153;BME280;66124;51.146;17.072;2023-09-08T08:11:01;100932.79;;;21.17;64.11
77153;BME280;66124;51.146;17.072;2023-09-08T08:13:50;100931.42;;;21.26;63.97
77153;BME280;66124;51.146;17.072;2023-09-08T08:16:20;100928.44;;;21.30;63.82
77153;BME280;66124;51.146;17.072;2023-09-08T08:18:50;100926.66;;;21.35;63.65
77153;BME280;66124;51.146;17.072;2023-09-08T08:21:19;100926.99;;;21.42;63.55
77153;BME280;66124;51.146;17.072;2023-09-08T08:23:49;100928.33;;;21.49;63.34
77153;BME280;66124;51.146;17.072;2023-09-08T08:26:19;100925.27;;;21.57;63.38
77153;BME280;66124;51.146;17.072;2023-09-08T08:28:48;100922.77;;;21.65;63.38
77153;BME280;66124;51.146;17.072;2023-09-08T08:31:18;100919.56;;;21.78;63.35
77153;BME280;66124;51.146;17.072;2023-09-08T08:33:47;100922.09;;;21.88;63.21
77153;BME280;66124;51.146;17.072;2023-09-08T08:36:16;100921.96;;;21.92;63.07
77153;BME280;66124;51.146;17.072;2023-09-08T08:38:46;100918.52;;;21.95;62.86
77153;BME280;66124;51.146;17.072;2023-09-08T08:41:15;100914.97;;;21.94;62.69
77153;BME280;66124;51.146;17.072;2023-09-08T08:43:46;100913.14;;;21.94;62.76
77153;BME280;66124;51.146;17.072;2023-09-08T08:46:18;100916.23;;;21.96;62.72
77153;BME280;66124;51.146;17.072;2023-09-08T08:48:48;100913.02;;;21.96;62.61
77153;BME280;66124;51.146;17.072;2023-09-08T08:51:19;100914.09;;;21.98;62.49
77153;BME280;66124;51.146;17.072;2023-09-08T08:53:52;100911.19;;;22.01;62.30
77153;BME280;66124;51.146;17.072;2023-09-08T08:56:21;100910.65;;;22.01;62.11
77153;BME280;66124;51.146;17.072;2023-09-08T08:58:51;100904.15;;;22.01;61.94
77153;BME280;66124;51.146;17.072;2023-09-08T09:01:21;100907.89;;;22.00;62.04
77153;BME280;66124;51.146;17.072;2023-09-08T09:03:52;100903.20;;;22.01;62.09
77153;BME280;66124;51.146;17.072;2023-09-08T09:06:22;100903.25;;;22.06;62.00
77153;BME280;66124;51.146;17.072;2023-09-08T09:08:52;100903.33;;;22.10;61.97
77153;BME280;66124;51.146;17.072;2023-09-08T09:11:21;100900.30;;;22.15;61.75
77153;BME280;66124;51.146;17.072;2023-09-08T09:13:51;100900.61;;;22.20;61.59
77153;BME280;66124;51.146;17.072;2023-09-08T09:16:20;100900.41;;;22.23;61.42
77153;BME280;66124;51.146;17.072;2023-09-08T09:18:58;100896.84;;;22.28;61.23
77153;BME280;66124;51.146;17.072;2023-09-08T09:21:43;100892.42;;;22.36;61.12
77153;BME280;66124;51.146;17.072;2023-09-08T09:24:17;100891.34;;;22.47;61.40
77153;BME280;66124;51.146;17.072;2023-09-08T09:32:39;100888.54;;;22.83;61.08
77153;BME280;66124;51.146;17.072;2023-09-08T09:35:09;100883.27;;;22.93;60.66
77153;BME280;66124;51.146;17.072;2023-09-08T09:37:41;100877.53;;;23.02;60.20
77153;BME280;66124;51.146;17.072;2023-09-08T09:40:12;100879.48;;;23.09;59.89
77153;BME280;66124;51.146;17.072;2023-09-08T09:42:41;100878.55;;;23.14;59.83
77153;BME280;66124;51.146;17.072;2023-09-08T09:45:11;100873.34;;;23.18;59.66
77153;BME280;66124;51.146;17.072;2023-09-08T09:47:40;100876.48;;;23.24;59.39
77153;BME280;66124;51.146;17.072;2023-09-08T09:50:10;100872.03;;;23.28;59.04
77153;BME280;66124;51.146;17.072;2023-09-08T09:52:41;100875.64;;;23.32;58.86
77153;BME280;66124;51.146;17.072;2023-09-08T09:55:11;100874.80;;;23.39;58.67
77153;BME280;66124;51.146;17.072;2023-09-08T09:57:41;100874.80;;;23.47;58.76
77153;BME280;66124;51.146;17.072;2023-09-08T10:00:13;100869.48;;;23.54;58.55
77153;BME280;66124;51.146;17.072;2023-09-08T10:02:43;100864.85;;;23.63;58.36
77153;BME280;66124;51.146;17.072;2023-09-08T10:05:14;100864.57;;;23.70;58.15
77153;BME280;66124;51.146;17.072;2023-09-08T10:07:44;100859.51;;;23.75;57.94
77153;BME280;66124;51.146;17.072;2023-09-08T10:10:15;100858.01;;;23.79;58.02
77153;BME280;66124;51.146;17.072;2023-09-08T10:12:46;100860.55;;;23.85;57.97
77153;BME280;66124;51.146;17.072;2023-09-08T10:15:21;100857.79;;;23.91;57.70
77153;BME280;66124;51.146;17.072;2023-09-08T10:17:54;100853.73;;;24.00;57.72
77153;BME280;66124;51.146;17.072;2023-09-08T10:20:25;100853.95;;;24.07;57.46
77153;BME280;66124;51.146;17.072;2023-09-08T10:22:59;100854.68;;;24.14;57.19
77153;BME280;66124;51.146;17.072;2023-09-08T10:25:34;100853.13;;;24.19;57.13
77153;BME280;66124;51.146;17.072;2023-09-08T10:28:05;100852.32;;;24.25;56.94
77153;BME280;66124;51.146;17.072;2023-09-08T10:30:35;100849.98;;;24.35;56.61
77153;BME280;66124;51.146;17.072;2023-09-08T10:33:06;100843.94;;;24.44;56.14
77153;BME280;66124;51.146;17.072;2023-09-08T10:35:35;100831.59;;;24.43;55.61
77153;BME280;66124;51.146;17.072;2023-09-08T10:38:25;100846.13;;;24.71;55.42
77153;BME280;66124;51.146;17.072;2023-09-08T10:44:02;100843.56;;;25.22;54.32
77153;BME280;66124;51.146;17.072;2023-09-08T10:49:15;100840.69;;;25.62;53.26
77153;BME280;66124;51.146;17.072;2023-09-08T10:51:47;100838.61;;;25.83;52.78
77153;BME280;66124;51.146;17.072;2023-09-08T10:54:42;100839.78;;;26.08;52.30
77153;BME280;66124;51.146;17.072;2023-09-08T10:57:16;100839.43;;;26.36;50.91
77153;BME280;66124;51.146;17.072;2023-09-08T10:59:53;100832.74;;;26.55;50.19
77153;BME280;66124;51.146;17.072;2023-09-08T11:02:36;100836.35;;;26.83;49.49
77153;BME280;66124;51.146;17.072;2023-09-08T11:05:08;100830.70;;;27.11;48.90
77153;BME280;66124;51.146;17.072;2023-09-08T11:07:39;100830.70;;;27.41;48.25
77153;BME280;66124;51.146;17.072;2023-09-08T11:10:10;100820.63;;;27.71;47.96
77153;BME280;66124;51.146;17.072;2023-09-08T11:12:40;100817.86;;;28.07;47.67
77153;BME280;66124;51.146;17.072;2023-09-08T11:15:11;100817.10;;;28.41;46.97
77153;BME280;66124;51.146;17.072;2023-09-08T11:17:40;100818.98;;;28.81;46.31
77153;BME280;66124;51.146;17.072;2023-09-08T11:20:11;100815.86;;;29.17;45.18
77153;BME280;66124;51.146;17.072;2023-09-08T11:22:41;100813.25;;;29.51;44.52
77153;BME280;66124;51.146;17.072;2023-09-08T11:25:11;100811.09;;;29.77;43.47
77153;BME280;66124;51.146;17.072;2023-09-08T11:27:40;100815.76;;;30.10;43.12
77153;BME280;66124;51.146;17.072;2023-09-08T11:30:11;100815.18;;;30.47;42.88
77153;BME280;66124;51.146;17.072;2023-09-08T11:32:41;100815.98;;;30.90;42.47
77153;BME280;66124;51.146;17.072;2023-09-08T11:35:12;100811.39;;;31.36;41.45
77153;BME280;66124;51.146;17.072;2023-09-08T11:37:42;100811.85;;;31.72;40.30
77153;BME280;66124;51.146;17.072;2023-09-08T11:40:12;100808.25;;;32.00;39.50
77153;BME280;66124;51.146;17.072;2023-09-08T11:42:44;100807.48;;;32.32;38.42
77153;BME280;66124;51.146;17.072;2023-09-08T11:45:15;100807.95;;;32.73;37.59
77153;BME280;66124;51.146;17.072;2023-09-08T11:47:43;100803.13;;;33.13;36.71
77153;BME280;66124;51.146;17.072;2023-09-08T11:50:13;100801.52;;;33.47;35.81
77153;BME280;66124;51.146;17.072;2023-09-08T11:52:45;100800.94;;;33.73;35.01
77153;BME280;66124;51.146;17.072;2023-09-08T11:55:15;100799.73;;;34.09;34.21
77153;BME280;66124;51.146;17.072;2023-09-08T11:57:47;100798.44;;;34.56;33.67
77153;BME280;66124;51.146;17.072;2023-09-08T12:00:19;100798.83;;;35.07;32.99
77153;BME280;66124;51.146;17.072;2023-09-08T12:08:39;100787.23;;;36.71;31.21
77153;BME280;66124;51.146;17.072;2023-09-08T12:11:08;100784.23;;;37.18;30.74
77153;BME280;66124;51.146;17.072;2023-09-08T12:13:38;100785.14;;;37.55;30.14
77153;BME280;66124;51.146;17.072;2023-09-08T12:16:20;100781.75;;;37.93;29.52
77153;BME280;66124;51.146;17.072;2023-09-08T12:18:49;100775.34;;;38.26;28.75
77153;BME280;66124;51.146;17.072;2023-09-08T12:21:19;100777.10;;;38.51;27.99
77153;BME280;66124;51.146;17.072;2023-09-08T12:23:52;100771.60;;;38.54;27.57
77153;BME280;66124;51.146;17.072;2023-09-08T12:26:23;100771.77;;;38.60;27.33
77153;BME280;66124;51.146;17.072;2023-09-08T12:28:53;100774.43;;;38.79;27.15
77153;BME280;66124;51.146;17.072;2023-09-08T12:31:23;100770.62;;;39.03;26.61
77153;BME280;66124;51.146;17.072;2023-09-08T12:33:52;100771.72;;;39.22;26.20
77153;BME280;66124;51.146;17.072;2023-09-08T12:36:23;100772.05;;;39.33;26.04
77153;BME280;66124;51.146;17.072;2023-09-08T12:38:53;100770.72;;;39.46;25.63
77153;BME280;66124;51.146;17.072;2023-09-08T12:41:22;100769.27;;;39.65;25.56
77153;BME280;66124;51.146;17.072;2023-09-08T12:43:52;100762.77;;;39.96;25.02
77153;BME280;66124;51.146;17.072;2023-09-08T12:46:21;100763.04;;;40.20;24.54
77153;BME280;66124;51.146;17.072;2023-09-08T12:48:51;100759.77;;;40.23;24.40
77153;BME280;66124;51.146;17.072;2023-09-08T12:51:20;100751.91;;;40.12;24.21
77153;BME280;66124;51.146;17.072;2023-09-08T12:53:49;100748.20;;;40.33;24.22
77153;BME280;66124;51.146;17.072;2023-09-08T12:56:19;100746.75;;;40.60;23.96
77153;BME280;66124;51.146;17.072;2023-09-08T12:58:48;100745.58;;;40.92;23.61
77153;BME280;66124;51.146;17.072;2023-09-08T13:01:18;100744.78;;;41.30;23.31
77153;BME280;66124;51.146;17.072;2023-09-08T13:03:47;100742.86;;;41.57;23.17
77153;BME280;66124;51.146;17.072;2023-09-08T13:06:17;100742.15;;;41.86;23.01
77153;BME280;66124;51.146;17.072;2023-09-08T13:08:46;100739.85;;;42.04;22.58
77153;BME280;66124;51.146;17.072;2023-09-08T13:11:16;100738.77;;;42.13;22.06
77153;BME280;66124;51.146;17.072;2023-09-08T13:13:45;100740.27;;;42.12;22.09
77153;BME280;66124;51.146;17.072;2023-09-08T13:16:15;100739.10;;;42.36;21.75
77153;BME280;66124;51.146;17.072;2023-09-08T13:18:42;100735.83;;;42.64;21.47
77153;BME280;66124;51.146;17.072;2023-09-08T13:21:10;100736.42;;;42.86;20.97
77153;BME280;66124;51.146;17.072;2023-09-08T13:28:38;100728.17;;;43.37;19.93
77153;BME280;66124;51.146;17.072;2023-09-08T13:31:07;100725.17;;;43.41;19.93
77153;BME280;66124;51.146;17.072;2023-09-08T13:33:36;100723.51;;;43.43;19.70
77153;BME280;66124;51.146;17.072;2023-09-08T13:36:06;100720.02;;;43.45;19.91
77153;BME280;66124;51.146;17.072;2023-09-08T13:38:36;100712.06;;;43.57;19.82
77153;BME280;66124;51.146;17.072;2023-09-08T13:41:06;100709.85;;;43.72;19.54
77153;BME280;66124;51.146;17.072;2023-09-08T13:43:35;100705.35;;;43.80;19.39
77153;BME280;66124;51.146;17.072;2023-09-08T13:46:05;100696.56;;;43.84;18.98
77153;BME280;66124;51.146;17.072;2023-09-08T13:48:34;100698.08;;;43.90;18.94
77153;BME280;66124;51.146;17.072;2023-09-08T13:51:04;100693.65;;;43.99;18.67
77153;BME280;66124;51.146;17.072;2023-09-08T13:53:33;100694.77;;;43.96;18.44
77153;BME280;66124;51.146;17.072;2023-09-08T13:56:03;100689.20;;;43.92;18.33
77153;BME280;66124;51.146;17.072;2023-09-08T13:58:33;100690.03;;;43.78;18.25
77153;BME280;66124;51.146;17.072;2023-09-08T14:01:03;100690.80;;;43.73;18.44